sensor_id;sensor_type;location;lat;lon;timestamp;P1;durP1;ratioP1;P2;durP2;ratioP2
6306;SDS011;3186;54.062;9.962;2023-08-12T00:00:30;6.17;;;2.97;;
6306;SDS011;3186;54.062;9.962;2023-08-12T00:02:57;5.30;;;2.50;;
6306;SDS011;3186;54.062;9.962;2023-08-12T00:05:23;3.67;;;2.80;;
6306;SDS011;3186;54.062;9.962;2023-08-12T00:07:49;4.87;;;2.83;;
6306;SDS011;3186;54.062;9.962;2023-08-12T00:10:15;4.17;;;2.80;;
6306;SDS011;3186;54.062;9.962;2023-08-12T00:12:41;4.23;;;2.50;;
6306;SDS011;3186;54.062;9.962;2023-08-12T00:15:08;4.23;;;2.80;;
6306;SDS011;3186;54.062;9.962;2023-08-12T00:17:36;4.23;;;3.10;;
6306;SDS011;3186;54.062;9.962;2023-08-12T00:20:03;3.27;;;2.53;;
6306;SDS011;3186;54.062;9.962;2023-08-12T00:22:35;3.67;;;3.00;;
6306;SDS011;3186;54.062;9.962;2023-08-12T00:25:01;8.03;;;2.97;;
6306;SDS011;3186;54.062;9.962;2023-08-12T00:27:28;3.43;;;2.63;;
6306;SDS011;3186;54.062;9.962;2023-08-12T00:29:54;4.07;;;3.00;;
6306;SDS011;3186;54.062;9.962;2023-08-12T00:32:21;6.67;;;3.03;;
6306;SDS011;3186;54.062;9.962;2023-08-12T00:34:47;5.07;;;2.73;;
6306;SDS011;3186;54.062;9.962;2023-08-12T00:37:14;4.53;;;2.90;;
6306;SDS011;3186;54.062;9.962;2023-08-12T00:39:40;6.37;;;2.50;;
6306;SDS011;3186;54.062;9.962;2023-08-12T00:42:06;4.70;;;2.60;;
6306;SDS011;3186;54.062;9.962;2023-08-12T00:44:33;2.80;;;2.60;;
6306;SDS011;3186;54.062;9.962;2023-08-12T00:46:59;4.57;;;3.07;;
6306;SDS011;3186;54.062;9.962;2023-08-12T00:49:26;2.87;;;2.50;;
6306;SDS011;3186;54.062;9.962;2023-08-12T00:51:52;3.03;;;2.70;;
6306;SDS011;3186;54.062;9.962;2023-08-12T00:54:21;3.97;;;2.83;;
6306;SDS011;3186;54.062;9.962;2023-08-12T00:56:49;11.50;;;2.90;;
6306;SDS011;3186;54.062;9.962;2023-08-12T00:59:16;6.20;;;2.70;;
6306;SDS011;3186;54.062;9.962;2023-08-12T01:01:44;8.17;;;2.73;;
6306;SDS011;3186;54.062;9.962;2023-08-12T01:04:10;3.10;;;2.67;;
6306;SDS011;3186;54.062;9.962;2023-08-12T01:06:36;10.67;;;2.67;;
6306;SDS011;3186;54.062;9.962;2023-08-12T01:09:03;6.83;;;3.07;;
6306;SDS011;3186;54.062;9.962;2023-08-12T01:13:58;3.23;;;2.70;;
6306;SDS011;3186;54.062;9.962;2023-08-12T01:16:39;4.30;;;3.07;;
6306;SDS011;3186;54.062;9.962;2023-08-12T01:19:09;3.83;;;2.80;;
6306;SDS011;3186;54.062;9.962;2023-08-12T01:21:43;5.93;;;2.67;;
6306;SDS011;3186;54.062;9.962;2023-08-12T01:24:12;3.13;;;2.83;;
6306;SDS011;3186;54.062;9.962;2023-08-12T01:26:38;4.40;;;3.23;;
6306;SDS011;3186;54.062;9.962;2023-08-12T01:29:04;4.47;;;3.10;;
6306;SDS011;3186;54.062;9.962;2023-08-12T01:31:31;7.70;;;3.40;;
6306;SDS011;3186;54.062;9.962;2023-08-12T01:34:28;4.83;;;2.90;;
6306;SDS011;3186;54.062;9.962;2023-08-12T01:36:57;4.90;;;2.87;;
6306;SDS011;3186;54.062;9.962;2023-08-12T01:39:25;3.23;;;2.80;;
6306;SDS011;3186;54.062;9.962;2023-08-12T01:41:52;6.23;;;3.10;;
6306;SDS011;3186;54.062;9.962;2023-08-12T01:44:19;3.90;;;3.20;;
6306;SDS011;3186;54.062;9.962;2023-08-12T01:46:45;5.03;;;2.60;;
6306;SDS011;3186;54.062;9.962;2023-08-12T01:49:11;5.43;;;2.70;;
6306;SDS011;3186;54.062;9.962;2023-08-12T01:51:37;5.73;;;2.90;;
6306;SDS011;3186;54.062;9.962;2023-08-12T01:54:03;5.97;;;3.50;;
6306;SDS011;3186;54.062;9.962;2023-08-12T01:56:29;3.33;;;2.83;;
6306;SDS011;3186;54.062;9.962;2023-08-12T01:58:55;5.20;;;3.23;;
6306;SDS011;3186;54.062;9.962;2023-08-12T02:01:21;5.03;;;3.20;;
6306;SDS011;3186;54.062;9.962;2023-08-12T02:03:47;4.83;;;3.10;;
6306;SDS011;3186;54.062;9.962;2023-08-12T02:06:13;4.30;;;2.87;;
6306;SDS011;3186;54.062;9.962;2023-08-12T02:08:40;4.70;;;3.10;;
6306;SDS011;3186;54.062;9.962;2023-08-12T02:11:06;3.27;;;2.73;;
6306;SDS011;3186;54.062;9.962;2023-08-12T02:13:32;3.47;;;3.17;;
6306;SDS011;3186;54.062;9.962;2023-08-12T02:15:59;5.73;;;3.37;;
6306;SDS011;3186;54.062;9.962;2023-08-12T02:18:25;4.30;;;3.67;;
6306;SDS011;3186;54.062;9.962;2023-08-12T02:20:51;4.50;;;2.90;;
6306;SDS011;3186;54.062;9.962;2023-08-12T02:23:17;6.83;;;3.23;;
6306;SDS011;3186;54.062;9.962;2023-08-12T02:25:43;5.70;;;3.37;;
6306;SDS011;3186;54.062;9.962;2023-08-12T02:28:09;3.03;;;2.73;;
6306;SDS011;3186;54.062;9.962;2023-08-12T02:30:35;4.17;;;2.90;;
6306;SDS011;3186;54.062;9.962;2023-08-12T02:33:01;6.90;;;3.33;;
6306;SDS011;3186;54.062;9.962;2023-08-12T02:35:27;3.57;;;3.27;;
6306;SDS011;3186;54.062;9.962;2023-08-12T02:37:53;4.00;;;3.07;;
6306;SDS011;3186;54.062;9.962;2023-08-12T02:40:19;4.13;;;2.63;;
6306;SDS011;3186;54.062;9.962;2023-08-12T02:42:46;5.23;;;3.20;;
6306;SDS011;3186;54.062;9.962;2023-08-12T02:45:12;3.93;;;3.40;;
6306;SDS011;3186;54.062;9.962;2023-08-12T02:47:39;3.37;;;2.77;;
6306;SDS011;3186;54.062;9.962;2023-08-12T02:50:05;4.03;;;2.97;;
6306;SDS011;3186;54.062;9.962;2023-08-12T02:52:31;3.73;;;3.37;;
6306;SDS011;3186;54.062;9.962;2023-08-12T02:54:57;5.17;;;2.83;;
6306;SDS011;3186;54.062;9.962;2023-08-12T02:57:23;6.87;;;3.20;;
6306;SDS011;3186;54.062;9.962;2023-08-12T02:59:49;5.27;;;3.37;;
6306;SDS011;3186;54.062;9.962;2023-08-12T03:02:14;6.80;;;3.20;;
6306;SDS011;3186;54.062;9.962;2023-08-12T03:04:41;5.30;;;3.30;;
6306;SDS011;3186;54.062;9.962;2023-08-12T03:07:08;3.27;;;2.97;;
6306;SDS011;3186;54.062;9.962;2023-08-12T03:09:34;4.43;;;2.70;;
6306;SDS011;3186;54.062;9.962;2023-08-12T03:12:00;7.27;;;3.03;;
6306;SDS011;3186;54.062;9.962;2023-08-12T03:14:28;3.37;;;3.07;;
6306;SDS011;3186;54.062;9.962;2023-08-12T03:16:58;3.63;;;3.30;;
6306;SDS011;3186;54.062;9.962;2023-08-12T03:19:25;5.67;;;3.67;;
6306;SDS011;3186;54.062;9.962;2023-08-12T03:21:51;4.10;;;3.10;;
6306;SDS011;3186;54.062;9.962;2023-08-12T03:24:16;5.17;;;2.90;;
6306;SDS011;3186;54.062;9.962;2023-08-12T03:26:42;3.97;;;2.67;;
6306;SDS011;3186;54.062;9.962;2023-08-12T03:29:08;9.27;;;3.10;;
6306;SDS011;3186;54.062;9.962;2023-08-12T03:31:37;6.17;;;2.97;;
6306;SDS011;3186;54.062;9.962;2023-08-12T03:34:04;4.33;;;3.27;;
6306;SDS011;3186;54.062;9.962;2023-08-12T03:36:31;4.33;;;2.87;;
6306;SDS011;3186;54.062;9.962;2023-08-12T03:38:57;6.57;;;3.00;;
6306;SDS011;3186;54.062;9.962;2023-08-12T03:41:29;3.10;;;2.70;;
6306;SDS011;3186;54.062;9.962;2023-08-12T03:43:58;5.57;;;3.27;;
6306;SDS011;3186;54.062;9.962;2023-08-12T03:46:25;3.77;;;3.37;;
6306;SDS011;3186;54.062;9.962;2023-08-12T03:48:51;6.70;;;3.27;;
6306;SDS011;3186;54.062;9.962;2023-08-12T03:51:17;3.33;;;2.93;;
6306;SDS011;3186;54.062;9.962;2023-08-12T03:53:43;3.73;;;2.90;;
6306;SDS011;3186;54.062;9.962;2023-08-12T03:56:09;7.30;;;3.50;;
6306;SDS011;3186;54.062;9.962;2023-08-12T03:58:40;7.23;;;3.17;;
6306;SDS011;3186;54.062;9.962;2023-08-12T04:01:07;4.00;;;2.87;;
6306;SDS011;3186;54.062;9.962;2023-08-12T04:03:33;3.40;;;3.17;;
6306;SDS011;3186;54.062;9.962;2023-08-12T04:05:59;4.20;;;3.20;;
6306;SDS011;3186;54.062;9.962;2023-08-12T04:08:25;4.40;;;3.03;;
6306;SDS011;3186;54.062;9.962;2023-08-12T04:10:51;3.70;;;3.17;;
6306;SDS011;3186;54.062;9.962;2023-08-12T04:13:17;5.93;;;2.77;;
6306;SDS011;3186;54.062;9.962;2023-08-12T04:15:47;5.00;;;3.40;;
6306;SDS011;3186;54.062;9.962;2023-08-12T04:18:14;4.77;;;3.50;;
6306;SDS011;3186;54.062;9.962;2023-08-12T04:20:41;5.53;;;3.23;;
6306;SDS011;3186;54.062;9.962;2023-08-12T04:23:07;3.93;;;3.27;;
6306;SDS011;3186;54.062;9.962;2023-08-12T04:25:34;3.13;;;2.93;;
6306;SDS011;3186;54.062;9.962;2023-08-12T04:30:28;4.67;;;3.23;;
6306;SDS011;3186;54.062;9.962;2023-08-12T04:32:55;7.20;;;3.83;;
6306;SDS011;3186;54.062;9.962;2023-08-12T04:35:24;5.00;;;3.93;;
6306;SDS011;3186;54.062;9.962;2023-08-12T04:37:51;8.00;;;3.43;;
6306;SDS011;3186;54.062;9.962;2023-08-12T04:40:17;3.87;;;3.57;;
6306;SDS011;3186;54.062;9.962;2023-08-12T04:42:44;7.03;;;3.30;;
6306;SDS011;3186;54.062;9.962;2023-08-12T04:45:10;5.60;;;3.63;;
6306;SDS011;3186;54.062;9.962;2023-08-12T04:47:36;3.90;;;3.60;;
6306;SDS011;3186;54.062;9.962;2023-08-12T04:50:03;3.40;;;3.10;;
6306;SDS011;3186;54.062;9.962;2023-08-12T04:52:31;5.53;;;3.50;;
6306;SDS011;3186;54.062;9.962;2023-08-12T04:54:58;6.23;;;3.80;;
6306;SDS011;3186;54.062;9.962;2023-08-12T04:57:26;3.30;;;3.00;;
6306;SDS011;3186;54.062;9.962;2023-08-12T04:59:53;4.10;;;3.43;;
6306;SDS011;3186;54.062;9.962;2023-08-12T05:02:20;4.20;;;3.17;;
6306;SDS011;3186;54.062;9.962;2023-08-12T05:04:50;4.83;;;3.67;;
6306;SDS011;3186;54.062;9.962;2023-08-12T05:07:17;3.77;;;3.07;;
6306;SDS011;3186;54.062;9.962;2023-08-12T05:09:43;5.97;;;3.27;;
6306;SDS011;3186;54.062;9.962;2023-08-12T05:12:11;3.53;;;3.23;;
6306;SDS011;3186;54.062;9.962;2023-08-12T05:14:38;5.67;;;3.40;;
6306;SDS011;3186;54.062;9.962;2023-08-12T05:17:06;7.80;;;3.40;;
6306;SDS011;3186;54.062;9.962;2023-08-12T05:19:32;3.27;;;2.97;;
6306;SDS011;3186;54.062;9.962;2023-08-12T05:21:59;4.23;;;3.00;;
6306;SDS011;3186;54.062;9.962;2023-08-12T05:24:26;9.00;;;3.33;;
6306;SDS011;3186;54.062;9.962;2023-08-12T05:26:53;3.30;;;3.00;;
6306;SDS011;3186;54.062;9.962;2023-08-12T05:29:19;4.80;;;3.23;;
6306;SDS011;3186;54.062;9.962;2023-08-12T05:31:45;4.13;;;3.10;;
6306;SDS011;3186;54.062;9.962;2023-08-12T05:34:11;4.53;;;3.63;;
6306;SDS011;3186;54.062;9.962;2023-08-12T05:36:37;7.23;;;3.23;;
6306;SDS011;3186;54.062;9.962;2023-08-12T05:39:03;4.93;;;3.40;;
6306;SDS011;3186;54.062;9.962;2023-08-12T05:41:29;7.67;;;3.33;;
6306;SDS011;3186;54.062;9.962;2023-08-12T05:43:55;5.07;;;3.27;;
6306;SDS011;3186;54.062;9.962;2023-08-12T05:46:21;3.57;;;3.27;;
6306;SDS011;3186;54.062;9.962;2023-08-12T05:48:46;3.97;;;3.30;;
6306;SDS011;3186;54.062;9.962;2023-08-12T05:51:12;3.47;;;3.17;;
6306;SDS011;3186;54.062;9.962;2023-08-12T05:53:38;5.53;;;3.53;;
6306;SDS011;3186;54.062;9.962;2023-08-12T05:56:04;5.00;;;3.57;;
6306;SDS011;3186;54.062;9.962;2023-08-12T05:58:30;5.07;;;3.20;;
6306;SDS011;3186;54.062;9.962;2023-08-12T06:00:56;4.10;;;3.47;;
6306;SDS011;3186;54.062;9.962;2023-08-12T06:03:22;4.30;;;3.40;;
6306;SDS011;3186;54.062;9.962;2023-08-12T06:05:48;4.53;;;3.07;;
6306;SDS011;3186;54.062;9.962;2023-08-12T06:08:14;5.57;;;4.07;;
6306;SDS011;3186;54.062;9.962;2023-08-12T06:10:40;5.60;;;3.53;;
6306;SDS011;3186;54.062;9.962;2023-08-12T06:13:06;4.73;;;3.30;;
6306;SDS011;3186;54.062;9.962;2023-08-12T06:15:32;3.83;;;3.53;;
6306;SDS011;3186;54.062;9.962;2023-08-12T06:17:59;4.47;;;3.57;;
6306;SDS011;3186;54.062;9.962;2023-08-12T06:20:25;5.27;;;3.73;;
6306;SDS011;3186;54.062;9.962;2023-08-12T06:22:51;5.80;;;3.90;;
6306;SDS011;3186;54.062;9.962;2023-08-12T06:25:18;4.13;;;3.73;;
6306;SDS011;3186;54.062;9.962;2023-08-12T06:27:44;4.73;;;3.73;;
6306;SDS011;3186;54.062;9.962;2023-08-12T06:30:12;3.97;;;3.57;;
6306;SDS011;3186;54.062;9.962;2023-08-12T06:32:39;5.40;;;3.50;;
6306;SDS011;3186;54.062;9.962;2023-08-12T06:35:05;9.90;;;3.67;;
6306;SDS011;3186;54.062;9.962;2023-08-12T06:37:31;4.47;;;4.00;;
6306;SDS011;3186;54.062;9.962;2023-08-12T06:39:57;4.63;;;4.00;;
6306;SDS011;3186;54.062;9.962;2023-08-12T06:42:23;3.50;;;3.20;;
6306;SDS011;3186;54.062;9.962;2023-08-12T06:44:54;4.33;;;4.03;;
6306;SDS011;3186;54.062;9.962;2023-08-12T06:47:21;4.30;;;3.63;;
6306;SDS011;3186;54.062;9.962;2023-08-12T06:49:47;7.97;;;4.20;;
6306;SDS011;3186;54.062;9.962;2023-08-12T06:52:13;4.80;;;3.90;;
6306;SDS011;3186;54.062;9.962;2023-08-12T06:54:38;4.50;;;4.10;;
6306;SDS011;3186;54.062;9.962;2023-08-12T06:57:05;4.77;;;3.70;;
6306;SDS011;3186;54.062;9.962;2023-08-12T06:59:31;5.97;;;4.33;;
6306;SDS011;3186;54.062;9.962;2023-08-12T07:01:56;4.80;;;4.30;;
6306;SDS011;3186;54.062;9.962;2023-08-12T07:04:22;5.37;;;3.60;;
6306;SDS011;3186;54.062;9.962;2023-08-12T07:06:48;4.60;;;4.10;;
6306;SDS011;3186;54.062;9.962;2023-08-12T07:09:14;9.37;;;4.00;;
6306;SDS011;3186;54.062;9.962;2023-08-12T07:11:39;4.40;;;4.00;;
6306;SDS011;3186;54.062;9.962;2023-08-12T07:14:05;4.40;;;4.00;;
6306;SDS011;3186;54.062;9.962;2023-08-12T07:16:31;4.77;;;3.63;;
6306;SDS011;3186;54.062;9.962;2023-08-12T07:18:58;4.50;;;3.93;;
6306;SDS011;3186;54.062;9.962;2023-08-12T07:21:24;8.47;;;3.90;;
6306;SDS011;3186;54.062;9.962;2023-08-12T07:23:50;6.83;;;4.93;;
6306;SDS011;3186;54.062;9.962;2023-08-12T07:26:15;5.83;;;3.97;;
6306;SDS011;3186;54.062;9.962;2023-08-12T07:28:41;4.70;;;3.63;;
6306;SDS011;3186;54.062;9.962;2023-08-12T07:31:07;8.07;;;4.07;;
6306;SDS011;3186;54.062;9.962;2023-08-12T07:33:33;4.33;;;3.67;;
6306;SDS011;3186;54.062;9.962;2023-08-12T07:35:59;6.60;;;4.10;;
6306;SDS011;3186;54.062;9.962;2023-08-12T07:38:25;4.83;;;3.77;;
6306;SDS011;3186;54.062;9.962;2023-08-12T07:40:51;6.30;;;3.70;;
6306;SDS011;3186;54.062;9.962;2023-08-12T07:43:17;5.03;;;3.77;;
6306;SDS011;3186;54.062;9.962;2023-08-12T07:45:42;6.10;;;3.37;;
6306;SDS011;3186;54.062;9.962;2023-08-12T07:48:08;5.00;;;3.93;;
6306;SDS011;3186;54.062;9.962;2023-08-12T07:50:34;8.00;;;4.20;;
6306;SDS011;3186;54.062;9.962;2023-08-12T07:53:00;3.93;;;3.53;;
6306;SDS011;3186;54.062;9.962;2023-08-12T07:55:26;8.30;;;4.03;;
6306;SDS011;3186;54.062;9.962;2023-08-12T07:57:52;5.33;;;4.30;;
6306;SDS011;3186;54.062;9.962;2023-08-12T08:00:18;9.20;;;4.30;;
6306;SDS011;3186;54.062;9.962;2023-08-12T08:02:44;7.07;;;4.30;;
6306;SDS011;3186;54.062;9.962;2023-08-12T08:05:10;5.77;;;3.93;;
6306;SDS011;3186;54.062;9.962;2023-08-12T08:07:36;4.90;;;4.00;;
6306;SDS011;3186;54.062;9.962;2023-08-12T08:10:02;8.63;;;4.10;;
6306;SDS011;3186;54.062;9.962;2023-08-12T08:12:28;6.57;;;3.83;;
6306;SDS011;3186;54.062;9.962;2023-08-12T08:14:54;6.33;;;4.47;;
6306;SDS011;3186;54.062;9.962;2023-08-12T08:17:19;4.60;;;4.17;;
6306;SDS011;3186;54.062;9.962;2023-08-12T08:19:45;6.93;;;4.17;;
6306;SDS011;3186;54.062;9.962;2023-08-12T08:22:11;3.90;;;3.50;;
6306;SDS011;3186;54.062;9.962;2023-08-12T08:24:38;10.47;;;5.60;;
6306;SDS011;3186;54.062;9.962;2023-08-12T08:27:04;4.40;;;3.63;;
6306;SDS011;3186;54.062;9.962;2023-08-12T08:29:30;7.67;;;6.43;;
6306;SDS011;3186;54.062;9.962;2023-08-12T08:31:56;11.47;;;7.03;;
6306;SDS011;3186;54.062;9.962;2023-08-12T08:34:21;6.70;;;5.30;;
6306;SDS011;3186;54.062;9.962;2023-08-12T08:36:47;6.67;;;5.00;;
6306;SDS011;3186;54.062;9.962;2023-08-12T08:46:05;6.47;;;5.83;;
6306;SDS011;3186;54.062;9.962;2023-08-12T08:50:00;7.80;;;6.33;;
6306;SDS011;3186;54.062;9.962;2023-08-12T08:52:26;8.60;;;6.97;;
6306;SDS011;3186;54.062;9.962;2023-08-12T08:57:28;10.57;;;6.80;;
6306;SDS011;3186;54.062;9.962;2023-08-12T08:59:54;15.13;;;8.80;;
6306;SDS011;3186;54.062;9.962;2023-08-12T09:02:19;8.40;;;6.77;;
6306;SDS011;3186;54.062;9.962;2023-08-12T09:04:46;12.57;;;8.17;;
6306;SDS011;3186;54.062;9.962;2023-08-12T09:07:13;12.77;;;8.87;;
6306;SDS011;3186;54.062;9.962;2023-08-12T09:09:39;10.13;;;7.83;;
6306;SDS011;3186;54.062;9.962;2023-08-12T09:12:10;8.57;;;6.97;;
6306;SDS011;3186;54.062;9.962;2023-08-12T09:14:38;12.70;;;8.23;;
6306;SDS011;3186;54.062;9.962;2023-08-12T09:17:04;13.00;;;7.73;;
6306;SDS011;3186;54.062;9.962;2023-08-12T09:19:30;14.63;;;8.93;;
6306;SDS011;3186;54.062;9.962;2023-08-12T09:21:56;11.27;;;9.30;;
6306;SDS011;3186;54.062;9.962;2023-08-12T09:24:25;16.23;;;8.90;;
6306;SDS011;3186;54.062;9.962;2023-08-12T09:26:52;13.07;;;9.07;;
6306;SDS011;3186;54.062;9.962;2023-08-12T09:29:18;8.03;;;6.50;;
6306;SDS011;3186;54.062;9.962;2023-08-12T09:32:13;11.20;;;9.00;;
6306;SDS011;3186;54.062;9.962;2023-08-12T09:37:14;12.40;;;8.40;;
6306;SDS011;3186;54.062;9.962;2023-08-12T09:39:40;11.53;;;9.37;;
6306;SDS011;3186;54.062;9.962;2023-08-12T09:42:06;13.83;;;9.70;;
6306;SDS011;3186;54.062;9.962;2023-08-12T09:44:35;10.57;;;9.00;;
6306;SDS011;3186;54.062;9.962;2023-08-12T09:47:03;16.53;;;11.53;;
6306;SDS011;3186;54.062;9.962;2023-08-12T09:49:29;14.87;;;9.67;;
6306;SDS011;3186;54.062;9.962;2023-08-12T09:51:55;10.80;;;8.77;;
6306;SDS011;3186;54.062;9.962;2023-08-12T09:54:22;13.37;;;9.00;;
6306;SDS011;3186;54.062;9.962;2023-08-12T09:56:52;9.60;;;7.37;;
6306;SDS011;3186;54.062;9.962;2023-08-12T09:59:22;10.10;;;7.57;;
6306;SDS011;3186;54.062;9.962;2023-08-12T10:01:49;8.47;;;6.60;;
6306;SDS011;3186;54.062;9.962;2023-08-12T10:04:18;9.43;;;7.50;;
6306;SDS011;3186;54.062;9.962;2023-08-12T10:06:47;8.30;;;7.27;;
6306;SDS011;3186;54.062;9.962;2023-08-12T10:09:17;11.40;;;6.73;;
6306;SDS011;3186;54.062;9.962;2023-08-12T10:11:45;7.97;;;6.30;;
6306;SDS011;3186;54.062;9.962;2023-08-12T10:14:12;8.87;;;7.33;;
6306;SDS011;3186;54.062;9.962;2023-08-12T10:16:39;11.30;;;8.33;;
6306;SDS011;3186;54.062;9.962;2023-08-12T10:19:11;10.27;;;7.73;;
6306;SDS011;3186;54.062;9.962;2023-08-12T10:21:37;7.57;;;6.10;;
6306;SDS011;3186;54.062;9.962;2023-08-12T10:24:04;8.83;;;7.90;;
6306;SDS011;3186;54.062;9.962;2023-08-12T10:26:32;7.33;;;6.60;;
6306;SDS011;3186;54.062;9.962;2023-08-12T10:28:59;7.80;;;5.20;;
6306;SDS011;3186;54.062;9.962;2023-08-12T10:31:26;7.17;;;6.47;;
6306;SDS011;3186;54.062;9.962;2023-08-12T10:33:59;8.00;;;5.17;;
6306;SDS011;3186;54.062;9.962;2023-08-12T10:36:26;8.90;;;6.63;;
6306;SDS011;3186;54.062;9.962;2023-08-12T10:38:52;8.00;;;5.33;;
6306;SDS011;3186;54.062;9.962;2023-08-12T10:41:22;8.70;;;6.30;;
6306;SDS011;3186;54.062;9.962;2023-08-12T10:43:55;8.60;;;6.30;;
6306;SDS011;3186;54.062;9.962;2023-08-12T10:46:31;7.03;;;6.33;;
6306;SDS011;3186;54.062;9.962;2023-08-12T10:54:16;7.20;;;4.33;;
6306;SDS011;3186;54.062;9.962;2023-08-12T11:04:44;8.27;;;5.40;;
6306;SDS011;3186;54.062;9.962;2023-08-12T11:07:17;4.67;;;4.10;;
6306;SDS011;3186;54.062;9.962;2023-08-12T11:09:44;5.43;;;4.20;;
6306;SDS011;3186;54.062;9.962;2023-08-12T11:12:10;5.53;;;4.60;;
6306;SDS011;3186;54.062;9.962;2023-08-12T11:14:48;6.63;;;4.50;;
6306;SDS011;3186;54.062;9.962;2023-08-12T11:17:18;7.03;;;4.87;;
6306;SDS011;3186;54.062;9.962;2023-08-12T11:19:44;5.27;;;4.77;;
6306;SDS011;3186;54.062;9.962;2023-08-12T11:22:10;7.17;;;4.60;;
6306;SDS011;3186;54.062;9.962;2023-08-12T11:24:40;5.57;;;4.20;;
6306;SDS011;3186;54.062;9.962;2023-08-12T11:27:10;9.87;;;5.80;;
6306;SDS011;3186;54.062;9.962;2023-08-12T11:29:37;5.50;;;4.90;;
6306;SDS011;3186;54.062;9.962;2023-08-12T11:32:04;4.77;;;4.37;;
6306;SDS011;3186;54.062;9.962;2023-08-12T11:34:30;7.23;;;5.40;;
6306;SDS011;3186;54.062;9.962;2023-08-12T11:36:57;6.73;;;4.93;;
6306;SDS011;3186;54.062;9.962;2023-08-12T11:39:23;10.90;;;7.07;;
6306;SDS011;3186;54.062;9.962;2023-08-12T11:41:49;9.13;;;5.47;;
6306;SDS011;3186;54.062;9.962;2023-08-12T11:44:16;6.97;;;5.70;;
6306;SDS011;3186;54.062;9.962;2023-08-12T11:46:42;6.00;;;4.53;;
6306;SDS011;3186;54.062;9.962;2023-08-12T11:49:08;7.17;;;4.90;;
6306;SDS011;3186;54.062;9.962;2023-08-12T11:51:34;5.97;;;5.33;;
6306;SDS011;3186;54.062;9.962;2023-08-12T11:54:00;6.50;;;4.93;;
6306;SDS011;3186;54.062;9.962;2023-08-12T11:56:26;6.63;;;5.30;;
6306;SDS011;3186;54.062;9.962;2023-08-12T11:58:53;6.87;;;4.93;;
6306;SDS011;3186;54.062;9.962;2023-08-12T12:01:20;5.47;;;4.70;;
6306;SDS011;3186;54.062;9.962;2023-08-12T12:03:53;5.27;;;4.77;;
6306;SDS011;3186;54.062;9.962;2023-08-12T12:06:32;6.70;;;5.33;;
6306;SDS011;3186;54.062;9.962;2023-08-12T12:09:10;5.20;;;4.27;;
6306;SDS011;3186;54.062;9.962;2023-08-12T12:11:37;7.03;;;4.47;;
6306;SDS011;3186;54.062;9.962;2023-08-12T12:14:04;4.73;;;4.00;;
6306;SDS011;3186;54.062;9.962;2023-08-12T12:16:37;5.07;;;4.03;;
6306;SDS011;3186;54.062;9.962;2023-08-12T12:19:17;3.83;;;3.30;;
6306;SDS011;3186;54.062;9.962;2023-08-12T12:21:48;4.43;;;3.80;;
6306;SDS011;3186;54.062;9.962;2023-08-12T12:24:16;3.77;;;3.47;;
6306;SDS011;3186;54.062;9.962;2023-08-12T12:26:44;4.63;;;3.43;;
6306;SDS011;3186;54.062;9.962;2023-08-12T12:29:10;4.63;;;3.97;;
6306;SDS011;3186;54.062;9.962;2023-08-12T12:31:39;5.77;;;3.10;;
6306;SDS011;3186;54.062;9.962;2023-08-12T12:34:06;6.33;;;3.90;;
6306;SDS011;3186;54.062;9.962;2023-08-12T12:36:35;4.63;;;3.73;;
6306;SDS011;3186;54.062;9.962;2023-08-12T12:39:04;6.00;;;3.70;;
6306;SDS011;3186;54.062;9.962;2023-08-12T12:41:31;4.57;;;3.50;;
6306;SDS011;3186;54.062;9.962;2023-08-12T12:43:59;5.50;;;3.73;;
6306;SDS011;3186;54.062;9.962;2023-08-12T12:46:29;3.63;;;3.33;;
6306;SDS011;3186;54.062;9.962;2023-08-12T12:48:55;8.17;;;3.63;;
6306;SDS011;3186;54.062;9.962;2023-08-12T12:51:21;3.83;;;3.40;;
6306;SDS011;3186;54.062;9.962;2023-08-12T12:53:46;7.43;;;3.30;;
6306;SDS011;3186;54.062;9.962;2023-08-12T12:56:12;6.47;;;3.90;;
6306;SDS011;3186;54.062;9.962;2023-08-12T12:58:38;3.50;;;3.20;;
6306;SDS011;3186;54.062;9.962;2023-08-12T13:01:05;4.60;;;3.60;;
6306;SDS011;3186;54.062;9.962;2023-08-12T13:03:31;4.87;;;3.47;;
6306;SDS011;3186;54.062;9.962;2023-08-12T13:05:57;4.00;;;3.50;;
6306;SDS011;3186;54.062;9.962;2023-08-12T13:08:24;5.83;;;3.13;;
6306;SDS011;3186;54.062;9.962;2023-08-12T13:10:50;3.47;;;3.13;;
6306;SDS011;3186;54.062;9.962;2023-08-12T13:13:17;4.93;;;3.63;;
6306;SDS011;3186;54.062;9.962;2023-08-12T13:15:43;5.10;;;4.57;;
6306;SDS011;3186;54.062;9.962;2023-08-12T13:18:10;4.23;;;3.30;;
6306;SDS011;3186;54.062;9.962;2023-08-12T13:20:36;3.70;;;3.20;;
6306;SDS011;3186;54.062;9.962;2023-08-12T13:23:02;4.73;;;3.30;;
6306;SDS011;3186;54.062;9.962;2023-08-12T13:25:29;4.40;;;3.70;;
6306;SDS011;3186;54.062;9.962;2023-08-12T13:27:57;3.80;;;3.50;;
6306;SDS011;3186;54.062;9.962;2023-08-12T13:30:23;6.33;;;3.33;;
6306;SDS011;3186;54.062;9.962;2023-08-12T13:32:49;4.10;;;3.53;;
6306;SDS011;3186;54.062;9.962;2023-08-12T13:35:16;6.27;;;3.50;;
6306;SDS011;3186;54.062;9.962;2023-08-12T13:37:42;3.83;;;3.50;;
6306;SDS011;3186;54.062;9.962;2023-08-12T13:40:08;7.43;;;4.03;;
6306;SDS011;3186;54.062;9.962;2023-08-12T13:42:37;5.40;;;4.17;;
6306;SDS011;3186;54.062;9.962;2023-08-12T13:45:03;7.00;;;5.37;;
6306;SDS011;3186;54.062;9.962;2023-08-12T13:47:30;6.73;;;5.50;;
6306;SDS011;3186;54.062;9.962;2023-08-12T13:49:56;4.70;;;4.20;;
6306;SDS011;3186;54.062;9.962;2023-08-12T13:52:22;5.53;;;4.50;;
6306;SDS011;3186;54.062;9.962;2023-08-12T13:54:48;4.63;;;3.47;;
6306;SDS011;3186;54.062;9.962;2023-08-12T13:57:13;5.60;;;5.03;;
6306;SDS011;3186;54.062;9.962;2023-08-12T13:59:39;5.63;;;3.83;;
6306;SDS011;3186;54.062;9.962;2023-08-12T14:02:09;6.50;;;4.90;;
6306;SDS011;3186;54.062;9.962;2023-08-12T14:04:37;5.10;;;4.60;;
6306;SDS011;3186;54.062;9.962;2023-08-12T14:07:04;5.70;;;4.13;;
6306;SDS011;3186;54.062;9.962;2023-08-12T14:09:30;4.80;;;3.57;;
6306;SDS011;3186;54.062;9.962;2023-08-12T14:11:56;4.03;;;3.73;;
6306;SDS011;3186;54.062;9.962;2023-08-12T14:14:22;4.17;;;3.73;;
6306;SDS011;3186;54.062;9.962;2023-08-12T14:16:50;4.23;;;3.90;;
6306;SDS011;3186;54.062;9.962;2023-08-12T14:19:15;4.87;;;3.87;;
6306;SDS011;3186;54.062;9.962;2023-08-12T14:21:43;5.43;;;4.93;;
6306;SDS011;3186;54.062;9.962;2023-08-12T14:24:09;4.67;;;4.20;;
6306;SDS011;3186;54.062;9.962;2023-08-12T14:26:35;4.87;;;3.80;;
6306;SDS011;3186;54.062;9.962;2023-08-12T14:29:01;5.33;;;4.30;;
6306;SDS011;3186;54.062;9.962;2023-08-12T14:31:27;8.20;;;5.00;;
6306;SDS011;3186;54.062;9.962;2023-08-12T14:33:52;4.70;;;4.17;;
6306;SDS011;3186;54.062;9.962;2023-08-12T14:36:18;6.40;;;3.80;;
6306;SDS011;3186;54.062;9.962;2023-08-12T14:38:44;4.63;;;4.23;;
6306;SDS011;3186;54.062;9.962;2023-08-12T14:41:10;6.70;;;4.30;;
6306;SDS011;3186;54.062;9.962;2023-08-12T14:43:35;5.83;;;5.00;;
6306;SDS011;3186;54.062;9.962;2023-08-12T14:46:02;4.53;;;4.10;;
6306;SDS011;3186;54.062;9.962;2023-08-12T14:48:28;4.20;;;3.80;;
6306;SDS011;3186;54.062;9.962;2023-08-12T14:50:56;6.73;;;4.17;;
6306;SDS011;3186;54.062;9.962;2023-08-12T14:53:21;5.13;;;3.77;;
6306;SDS011;3186;54.062;9.962;2023-08-12T14:55:47;4.83;;;3.80;;
6306;SDS011;3186;54.062;9.962;2023-08-12T14:58:13;5.17;;;4.40;;
6306;SDS011;3186;54.062;9.962;2023-08-12T15:00:39;3.70;;;3.40;;
6306;SDS011;3186;54.062;9.962;2023-08-12T15:03:04;5.50;;;3.67;;
6306;SDS011;3186;54.062;9.962;2023-08-12T15:05:30;5.00;;;4.17;;
6306;SDS011;3186;54.062;9.962;2023-08-12T15:07:56;3.77;;;3.40;;
6306;SDS011;3186;54.062;9.962;2023-08-12T15:10:22;4.20;;;3.80;;
6306;SDS011;3186;54.062;9.962;2023-08-12T15:12:48;4.33;;;3.73;;
6306;SDS011;3186;54.062;9.962;2023-08-12T15:15:14;3.70;;;3.40;;
6306;SDS011;3186;54.062;9.962;2023-08-12T15:17:40;4.60;;;3.37;;
6306;SDS011;3186;54.062;9.962;2023-08-12T15:20:06;11.53;;;5.30;;
6306;SDS011;3186;54.062;9.962;2023-08-12T15:22:35;4.87;;;4.43;;
6306;SDS011;3186;54.062;9.962;2023-08-12T15:25:01;5.83;;;4.13;;
6306;SDS011;3186;54.062;9.962;2023-08-12T15:27:27;4.27;;;3.77;;
6306;SDS011;3186;54.062;9.962;2023-08-12T15:29:53;4.70;;;4.30;;
6306;SDS011;3186;54.062;9.962;2023-08-12T15:32:19;4.43;;;3.77;;
6306;SDS011;3186;54.062;9.962;2023-08-12T15:34:46;4.33;;;3.23;;
6306;SDS011;3186;54.062;9.962;2023-08-12T15:37:12;3.73;;;3.40;;
6306;SDS011;3186;54.062;9.962;2023-08-12T15:39:37;5.93;;;4.27;;
6306;SDS011;3186;54.062;9.962;2023-08-12T15:42:03;4.00;;;3.60;;
6306;SDS011;3186;54.062;9.962;2023-08-12T15:44:31;5.60;;;4.20;;